Pagrindinis puslapis
METAR-TAF:

METAR-TAF

Oro uostai :

Pchenjanas, Šiaurės Korėja

platuma: 39-02N, ilguma: 125-47E, Aukštis: 36 m

METAR: trūkstamas

Laikas: 14:29 (05:29 UTC)

Prognozė

Ataskaita buvo paskelbta 8 valandos ir 24 minutes, ne 21:05 UTC
Prognozė galioja nuo 12 metu 00 UTC su 12 metu 24 UTC
Vėjas 6 kt iš Šiaurės
Matomumas 10 km arba daugiau
nėra debesų žemiau 1500 m ir nėra kamuolinių lietaus debesų
Tapsmas
nuo 12 metu 03 UTC su 12 metu 05 UTC
Vėjas 10 kt iš Vakarų

TAF: ZKPY 112105Z 1200/1224 35003MPS CAVOK TX01/1206Z TNM05/1220Z BECMG 1203/1205 26005MPS

Orai ataskaitas ir orų prognozės (METAR, TAF).

turimą stotys yra geltonos ir raudonos taškus žemėlapyje.

Perkelti pele per norėdami pamatyti stoties vardą.

Tada spustelėkite, norėdami matyti oro stebėjimo ir prognozės.

Norėdami pakeisti žemėlapį: spustelėkite ant žalios mygtukų su juodo kryžiaus žemyn,; žalią mygtuką su brūkšneliu, jei norite nutolinti; arba žalių rodyklių gretimoms žemėlapius.


METAR-TAF: